Estación de Purranque

Ultimos registro cada 15 minutos 39
Estación Fecha / Hora Temperatura Humedad Lluvia Velocidad Dirección Radiación Presion
39 Purranque 05-05-2026 09:30 11,7 98,4 0,2 2 37 30,6 997,8
38 Purranque 05-05-2026 09:15 11,6 98,5 0 2,3 35 41,9 997,9
37 Purranque 05-05-2026 09:00 11,5 98,9 0,2 2,3 31 31,9 998,3
36 Purranque 05-05-2026 08:45 11,5 99,1 0,2 2,3 31 19,4 998,5
35 Purranque 05-05-2026 08:30 11,4 99,7 0,4 2 29 13,1 998,5
34 Purranque 05-05-2026 08:15 11,3 100 0 1,7 34 3,1 998,6
33 Purranque 05-05-2026 08:00 11,2 100 0 1,7 42 0,6 998,6
32 Purranque 05-05-2026 07:45 11,1 100 0,2 1,3 66 0,6 998,7
31 Purranque 05-05-2026 07:30 11 100 0,2 1 80 0,6 998,7
30 Purranque 05-05-2026 07:15 10,9 100 0,4 1,3 90 0,6 998,7
29 Purranque 05-05-2026 07:00 10,8 100 0,2 1,7 93 0,6 998,7
28 Purranque 05-05-2026 06:45 10,6 100 0,4 1,3 88 0,6 998,7
27 Purranque 05-05-2026 06:30 10,6 100 0,2 1 94 0,6 998,8
26 Purranque 05-05-2026 06:15 10,5 100 0,4 1 95 0,6 999
25 Purranque 05-05-2026 06:00 10,4 100 0,2 1 93 0,6 999,1
24 Purranque 05-05-2026 05:45 10,4 100 0,2 1 73 0,6 999,2
23 Purranque 05-05-2026 05:30 10,4 100 0,2 1 100 0,6 999,2
22 Purranque 05-05-2026 05:15 10,4 100 0,2 1,3 93 0,6 999,1
21 Purranque 05-05-2026 05:00 10,5 100 0,4 1 86 0,6 999,3
20 Purranque 05-05-2026 04:45 10,5 100 0,6 1 81 0,6 999,5
19 Purranque 05-05-2026 04:30 10,5 100 0,4 1,3 80 0,6 999,5
18 Purranque 05-05-2026 04:15 10,5 100 0,4 1 80 0,6 999,6
17 Purranque 05-05-2026 04:00 10,5 100 0,2 1 72 0,6 999,8
16 Purranque 05-05-2026 03:45 10,5 100 0,4 1 67 0,6 999,7
15 Purranque 05-05-2026 03:30 10,6 100 0,2 0,7 65 0,6 1000
14 Purranque 05-05-2026 03:15 10,7 100 0,6 1 55 0,6 1000,2
13 Purranque 05-05-2026 03:00 10,7 100 0,6 0,7 55 0,6 1000,4
12 Purranque 05-05-2026 02:45 10,7 100 0,4 1 48 0,6 1000,5
11 Purranque 05-05-2026 02:30 10,7 100 0,6 1 52 0,6 1000,5
10 Purranque 05-05-2026 02:15 10,7 100 0,6 1 45 0,6 1000,5
9 Purranque 05-05-2026 02:00 10,7 100 0,8 1 44 0,6 1000,5
8 Purranque 05-05-2026 01:45 10,7 99,8 0,4 0,7 41 0,6 1000,5
7 Purranque 05-05-2026 01:30 10,7 99,8 0,2 1 49 0,6 1000,4
6 Purranque 05-05-2026 01:15 10,7 99,8 0 1,3 32 0,6 1000,4
5 Purranque 05-05-2026 01:00 10,7 99,7 0,2 2 29 0,6 1000,3
4 Purranque 05-05-2026 00:45 10,7 99,7 0 1,7 38 0,6 1000,3
3 Purranque 05-05-2026 00:30 10,7 99,6 0,2 1,7 25 0,6 1000,3
2 Purranque 05-05-2026 00:15 10,7 99,5 0 2,3 24 0,6 1000,2
1 Purranque 05-05-2026 00:00 10,6 99,6 0,2 2,3 34 0,6 1000,2